Algodones, NM

8:04 PM MDT on August 28, 2016 (GMT -0600)
On The Loop | | Change Station

Elev 5260 ft 35.34 °N, 106.50 °W | Updated 4 minutes ago

Scattered Clouds
Scattered Clouds
72.0 °F
Feels Like 77 °F
N
0.0
Wind Variable Wind from NW
Gusts 0.0 mph

Today
High -- | Low -- °F
--% Chance of Precip.
Yesterday
High -- | Low -- °F
Precip. -- in
Pressure 30.24 in
Visibility 10.0 miles
Clouds Scattered Clouds 12000 ft
Heat Index 77 °F
Dew Point 44 °F
Humidity 36%
Rainfall 0.00 in
Snow Depth Not available.
6:35 AM 7:37 PM
Waning Crescent, 12% visible
METAR KAEG 290147Z 26006KT 10SM SCT120 18/07 A3024
Pressure 30.24 in
Visibility 10.0 miles
Clouds Scattered Clouds 12000 ft
Heat Index 77 °F
Dew Point 44 °F
Humidity 36%
Rainfall 0.00 in
Snow Depth Not available.
6:35 AM 7:37 PM
Waning Crescent, 12% visible
METAR KAEG 290147Z 26006KT 10SM SCT120 18/07 A3024

10-Day Weather Forecast

Almanac

Astronomy

Aug. 28, 2016 Rise Set
Actual Time
Civil Twilight
Nautical Twilight
Astronomical Twilight
Moon
Length of Visible Light
Length of Day
Tomorrow will be .
, % of the Moon is Illuminated

Today's Extremes

State Highs State Lows

Community

WunderPhotos

Upload Photos

1,935,768 photos uploaded!

WunderBlog® & News

Nearby

Air Quality

  Air Quality AQ Index Pollutant
Not available.

Snow Depth

Station Depth Elevation

Earthquake Activity

City Distance Mag. Time & Date
Minimum magnitude displayed is 2.5.

Coastal Water Temperatures

Place Temperature

Stations

Nearby Weather Stations

Station Location Temp. Windchill Dew Point Humidity Wind Precip. Elev Updated Type
                   

Watches & Warnings

There are currently no watches in effect.